createdAt,value
2022-07-31T00:00:55.141Z,18.04
2022-07-31T00:03:23.590Z,18.06
2022-07-31T00:05:52.433Z,18.06
2022-07-31T00:08:24.151Z,18.05
2022-07-31T00:10:52.559Z,18.05
2022-07-31T00:13:57.767Z,18.03
2022-07-31T00:16:10.399Z,18.02
2022-07-31T00:18:38.795Z,18.02
2022-07-31T00:21:07.107Z,18.01
2022-07-31T00:23:35.550Z,18.02
2022-07-31T00:26:03.938Z,18.03
2022-07-31T00:28:32.746Z,18.03
2022-07-31T00:31:01.160Z,18.01
2022-07-31T00:33:29.880Z,18.01
2022-07-31T00:35:58.339Z,18.01
2022-07-31T00:38:27.585Z,18.01
2022-07-31T00:40:56.819Z,18.01
2022-07-31T00:43:27.411Z,18.01
2022-07-31T00:45:59.429Z,18.01
2022-07-31T00:48:28.199Z,18.00
2022-07-31T00:50:56.988Z,18.00
2022-07-31T00:53:25.638Z,18.00
2022-07-31T00:55:54.532Z,18.01
2022-07-31T00:58:24.906Z,18.00
2022-07-31T01:04:08.146Z,18.00
2022-07-31T01:06:44.736Z,18.01
2022-07-31T01:09:14.619Z,18.02
2022-07-31T01:11:50.656Z,18.01
2022-07-31T01:14:22.258Z,17.99
2022-07-31T01:16:53.677Z,17.98
2022-07-31T01:19:42.169Z,17.98
2022-07-31T01:23:03.570Z,17.98
2022-07-31T01:25:56.734Z,17.96
2022-07-31T01:28:53.194Z,17.93
2022-07-31T01:31:27.661Z,17.92
2022-07-31T01:34:05.924Z,17.91
2022-07-31T01:36:36.796Z,17.90
2022-07-31T01:39:06.284Z,17.89
2022-07-31T01:41:40.548Z,17.88
2022-07-31T01:44:13.822Z,17.86
2022-07-31T01:46:46.879Z,17.84
2022-07-31T01:49:20.817Z,17.83
2022-07-31T01:51:52.758Z,17.83
2022-07-31T01:54:26.260Z,17.83
2022-07-31T01:56:59.087Z,17.82
2022-07-31T01:59:29.353Z,17.82
2022-07-31T02:02:14.581Z,17.83
2022-07-31T02:04:50.477Z,17.81
2022-07-31T02:07:30.954Z,17.79
2022-07-31T02:10:02.585Z,17.77
2022-07-31T02:12:34.814Z,17.77
2022-07-31T02:15:06.895Z,17.77
2022-07-31T02:17:41.465Z,17.76
2022-07-31T02:20:38.500Z,17.77
2022-07-31T02:23:37.219Z,17.75
2022-07-31T02:26:08.077Z,17.75
2022-07-31T02:28:40.995Z,17.74
2022-07-31T02:31:12.909Z,17.73
2022-07-31T02:33:45.929Z,17.71
2022-07-31T02:36:17.287Z,17.70
2022-07-31T02:38:46.758Z,17.69
2022-07-31T02:41:17.202Z,17.68
2022-07-31T02:43:56.122Z,17.67
2022-07-31T02:46:27.958Z,17.67
2022-07-31T02:48:56.940Z,17.68
2022-07-31T02:51:26.172Z,17.69
2022-07-31T02:53:55.710Z,17.69
2022-07-31T02:56:35.047Z,17.68
2022-07-31T02:59:04.802Z,17.66
2022-07-31T03:01:43.950Z,17.63
2022-07-31T03:04:12.513Z,17.62
2022-07-31T03:06:40.941Z,17.60
2022-07-31T03:09:09.509Z,17.60
2022-07-31T03:11:38.805Z,17.61
2022-07-31T03:14:12.596Z,17.62
2022-07-31T03:16:42.802Z,17.63
2022-07-31T03:19:12.486Z,17.64
2022-07-31T03:21:44.099Z,17.63
2022-07-31T03:24:13.484Z,17.63
2022-07-31T03:26:42.849Z,17.64
2022-07-31T03:29:42.940Z,17.65
2022-07-31T03:32:01.778Z,17.66
2022-07-31T03:34:30.587Z,17.66
2022-07-31T03:36:59.713Z,17.67
2022-07-31T03:39:29.226Z,17.67
2022-07-31T03:42:03.877Z,17.68
2022-07-31T03:44:34.338Z,17.69
2022-07-31T03:47:23.353Z,17.71
2022-07-31T03:49:53.659Z,17.71
2022-07-31T03:52:23.044Z,17.72
2022-07-31T03:54:51.689Z,17.71
2022-07-31T03:57:21.258Z,17.70
2022-07-31T03:59:57.538Z,17.70
2022-07-31T04:02:27.252Z,17.68
2022-07-31T04:05:09.627Z,17.66
2022-07-31T04:07:44.713Z,17.64
2022-07-31T04:10:13.468Z,17.62
2022-07-31T04:12:42.008Z,17.61
2022-07-31T04:15:11.442Z,17.61
2022-07-31T04:17:40.015Z,17.61
2022-07-31T04:20:11.491Z,17.61
2022-07-31T04:22:40.827Z,17.61
2022-07-31T04:25:16.713Z,17.59
2022-07-31T04:27:55.596Z,17.59
2022-07-31T04:30:24.322Z,17.60
2022-07-31T04:32:54.605Z,17.61
2022-07-31T04:35:25.199Z,17.61
2022-07-31T04:37:54.335Z,17.60
2022-07-31T04:40:25.803Z,17.61
2022-07-31T04:42:55.509Z,17.60
2022-07-31T04:45:26.850Z,17.59
2022-07-31T04:47:55.939Z,17.58
2022-07-31T04:50:24.533Z,17.57
2022-07-31T04:53:00.716Z,17.55
2022-07-31T04:55:37.461Z,17.54
2022-07-31T04:58:06.153Z,17.52
2022-07-31T05:00:34.738Z,17.51
2022-07-31T05:03:03.595Z,17.50
2022-07-31T05:05:32.722Z,17.49
2022-07-31T05:08:02.519Z,17.50
2022-07-31T05:11:00.368Z,17.52
2022-07-31T05:13:29.779Z,17.55
2022-07-31T05:19:13.862Z,17.56
2022-07-31T05:22:04.632Z,17.57
2022-07-31T05:24:45.860Z,17.58
2022-07-31T05:27:14.267Z,17.57
2022-07-31T05:29:43.933Z,17.58
2022-07-31T05:32:13.086Z,17.58
2022-07-31T05:34:41.758Z,17.59
2022-07-31T05:37:11.377Z,17.59
2022-07-31T05:39:42.080Z,17.59
2022-07-31T05:42:29.123Z,17.56
2022-07-31T05:45:16.556Z,17.54
2022-07-31T05:47:45.245Z,17.54
2022-07-31T05:50:15.193Z,17.53
2022-07-31T05:52:43.712Z,17.51
2022-07-31T05:55:41.720Z,17.49
2022-07-31T05:58:20.953Z,17.48
2022-07-31T06:00:50.126Z,17.47
2022-07-31T06:03:24.415Z,17.46
2022-07-31T06:09:05.269Z,17.45
2022-07-31T06:11:37.667Z,17.48
2022-07-31T06:14:06.156Z,17.50
2022-07-31T06:17:04.168Z,17.53
2022-07-31T06:19:33.259Z,17.54
2022-07-31T06:22:01.630Z,17.55
2022-07-31T06:24:32.029Z,17.56
2022-07-31T06:27:03.770Z,17.56
2022-07-31T06:29:41.437Z,17.56
2022-07-31T06:32:10.607Z,17.56
2022-07-31T06:34:39.266Z,17.56
2022-07-31T06:37:08.375Z,17.57
2022-07-31T06:39:55.820Z,17.56
2022-07-31T06:43:05.000Z,17.55
2022-07-31T06:45:54.093Z,17.53
2022-07-31T06:52:18.655Z,17.51
2022-07-31T06:54:47.607Z,17.51
2022-07-31T06:57:16.078Z,17.52
2022-07-31T06:59:45.124Z,17.55
2022-07-31T07:02:13.906Z,17.56
2022-07-31T07:04:56.199Z,17.58
2022-07-31T07:07:36.725Z,17.59
2022-07-31T07:10:06.879Z,17.59
2022-07-31T07:12:55.547Z,17.60
2022-07-31T07:15:24.208Z,17.59
2022-07-31T07:17:53.026Z,17.59
2022-07-31T07:20:33.784Z,17.59
2022-07-31T07:24:13.716Z,17.60
2022-07-31T07:27:49.153Z,17.60
2022-07-31T07:31:44.724Z,17.63
2022-07-31T07:35:00.012Z,17.61
2022-07-31T07:39:29.121Z,17.61
2022-07-31T07:42:02.425Z,17.61
2022-07-31T07:49:30.718Z,17.65
2022-07-31T07:57:30.228Z,17.74
2022-07-31T08:00:21.050Z,17.77
2022-07-31T08:03:54.604Z,17.81
2022-07-31T08:06:27.666Z,17.84
2022-07-31T08:08:59.053Z,17.87
2022-07-31T08:16:21.714Z,17.92
2022-07-31T08:20:06.583Z,17.94
2022-07-31T08:29:08.385Z,17.99
2022-07-31T08:32:03.409Z,18.02
2022-07-31T08:34:55.469Z,18.06
2022-07-31T08:38:03.823Z,18.08
2022-07-31T08:41:17.172Z,18.13
2022-07-31T08:44:02.436Z,18.14
2022-07-31T08:51:02.024Z,18.20
2022-07-31T08:53:51.632Z,18.24
2022-07-31T08:56:23.745Z,18.28
2022-07-31T08:58:55.132Z,18.34
2022-07-31T09:01:23.964Z,18.39
2022-07-31T09:03:54.618Z,18.44
2022-07-31T09:06:24.172Z,18.48
2022-07-31T09:08:56.859Z,18.52
2022-07-31T09:11:27.355Z,18.56
2022-07-31T09:14:34.118Z,18.61
2022-07-31T09:17:08.759Z,18.66
2022-07-31T09:20:01.836Z,18.72
2022-07-31T09:22:43.809Z,18.79
2022-07-31T09:25:51.518Z,18.84
2022-07-31T09:28:34.138Z,18.89
2022-07-31T09:31:15.342Z,18.93
2022-07-31T09:33:59.970Z,18.96
2022-07-31T09:36:43.765Z,18.99
2022-07-31T09:39:52.396Z,19.02
2022-07-31T09:42:45.967Z,19.04
2022-07-31T09:45:26.084Z,19.07
2022-07-31T09:48:12.828Z,19.09
2022-07-31T09:50:59.882Z,19.12
2022-07-31T09:53:43.508Z,19.16
2022-07-31T09:56:33.921Z,19.16
2022-07-31T09:59:03.045Z,19.18
2022-07-31T10:01:35.815Z,19.20
2022-07-31T10:04:08.439Z,19.22
2022-07-31T10:10:13.617Z,19.28
2022-07-31T10:13:00.250Z,19.29
2022-07-31T10:15:32.937Z,19.31
2022-07-31T10:18:40.402Z,19.32
2022-07-31T10:21:40.888Z,19.34
2022-07-31T10:24:12.894Z,19.37
2022-07-31T10:27:11.059Z,19.40
2022-07-31T10:29:33.407Z,19.43
2022-07-31T10:32:09.277Z,19.46
2022-07-31T10:34:45.663Z,19.48
2022-07-31T10:37:39.339Z,19.52
2022-07-31T10:40:29.004Z,19.56
2022-07-31T10:43:19.320Z,19.58
2022-07-31T10:46:03.937Z,19.59
2022-07-31T10:48:54.371Z,19.57
2022-07-31T10:51:48.924Z,19.56
2022-07-31T10:54:46.583Z,19.56
2022-07-31T10:57:35.126Z,19.55
2022-07-31T11:00:42.677Z,19.53
2022-07-31T11:03:46.026Z,19.52
2022-07-31T11:06:41.032Z,19.51
2022-07-31T11:09:51.077Z,19.52
2022-07-31T11:12:29.684Z,19.53
2022-07-31T11:15:23.231Z,19.51
2022-07-31T11:18:22.744Z,19.51
2022-07-31T11:21:37.994Z,19.51
2022-07-31T11:24:03.316Z,19.53
2022-07-31T11:26:41.648Z,19.55
2022-07-31T11:30:00.934Z,19.57
2022-07-31T11:32:15.687Z,19.57
2022-07-31T11:34:51.040Z,19.58
2022-07-31T11:37:22.654Z,19.58
2022-07-31T11:39:53.991Z,19.58
2022-07-31T11:42:27.778Z,19.58
2022-07-31T11:45:10.991Z,19.56
2022-07-31T11:48:12.324Z,19.55
2022-07-31T11:50:41.557Z,19.55
2022-07-31T11:53:10.735Z,19.54
2022-07-31T11:55:48.639Z,19.53
2022-07-31T11:58:19.894Z,19.52
2022-07-31T12:00:51.153Z,19.52
2022-07-31T12:03:21.838Z,19.53
2022-07-31T12:05:52.273Z,19.53
2022-07-31T12:08:22.108Z,19.53
2022-07-31T12:10:53.189Z,19.53
2022-07-31T12:13:23.203Z,19.52
2022-07-31T12:16:00.889Z,19.50
2022-07-31T12:18:32.630Z,19.48
2022-07-31T12:21:03.718Z,19.47
2022-07-31T12:23:43.782Z,19.44
2022-07-31T12:26:23.155Z,19.43
2022-07-31T12:29:00.283Z,19.43
2022-07-31T12:31:30.638Z,19.42
2022-07-31T12:33:59.301Z,19.42
2022-07-31T12:36:27.955Z,19.45
2022-07-31T12:39:05.335Z,19.46
2022-07-31T12:41:43.051Z,19.45
2022-07-31T12:44:14.312Z,19.46
2022-07-31T12:46:43.551Z,19.45
2022-07-31T12:49:12.348Z,19.45
2022-07-31T12:51:46.159Z,19.47
2022-07-31T12:54:18.519Z,19.47
2022-07-31T12:56:47.514Z,19.45
2022-07-31T12:59:16.563Z,19.45
2022-07-31T13:01:45.921Z,19.44
2022-07-31T13:04:18.744Z,19.43
2022-07-31T13:06:51.391Z,19.40
2022-07-31T13:09:20.978Z,19.39
2022-07-31T13:11:57.576Z,19.37
2022-07-31T13:14:26.688Z,19.31
2022-07-31T13:16:56.769Z,19.24
2022-07-31T13:19:26.726Z,19.18
2022-07-31T13:21:56.870Z,19.12
2022-07-31T13:24:28.563Z,19.09
2022-07-31T13:26:58.687Z,19.06
2022-07-31T13:29:27.484Z,19.04
2022-07-31T13:31:56.451Z,19.01
2022-07-31T13:34:25.257Z,18.97
2022-07-31T13:36:53.798Z,18.93
2022-07-31T13:39:22.707Z,18.89
2022-07-31T13:41:51.495Z,18.82
2022-07-31T13:44:20.284Z,18.80
2022-07-31T13:46:48.791Z,18.79
2022-07-31T13:49:17.395Z,18.76
2022-07-31T13:51:45.958Z,18.74
2022-07-31T13:54:15.915Z,18.72
2022-07-31T13:56:44.785Z,18.69
2022-07-31T13:59:46.001Z,18.67
2022-07-31T14:02:14.813Z,18.64
2022-07-31T14:05:10.137Z,18.60
2022-07-31T14:11:36.881Z,18.56
2022-07-31T14:14:22.879Z,18.53
2022-07-31T14:17:01.762Z,18.52
2022-07-31T14:19:30.507Z,18.50
2022-07-31T14:22:13.266Z,18.49
2022-07-31T14:24:45.642Z,18.49
2022-07-31T14:27:20.720Z,18.45
2022-07-31T14:29:50.098Z,18.43
2022-07-31T14:32:19.121Z,18.43
2022-07-31T14:34:48.121Z,18.41
2022-07-31T14:37:19.304Z,18.40
2022-07-31T14:39:58.294Z,18.39
2022-07-31T14:42:26.923Z,18.37
2022-07-31T14:44:55.949Z,18.36
2022-07-31T14:47:24.736Z,18.36
2022-07-31T14:50:20.301Z,18.36
2022-07-31T14:53:10.835Z,18.37
2022-07-31T14:55:40.719Z,18.37
2022-07-31T14:58:09.549Z,18.38
2022-07-31T15:00:38.246Z,18.39
2022-07-31T15:03:07.054Z,18.39
2022-07-31T15:06:41.880Z,18.40
2022-07-31T15:08:24.403Z,18.42
2022-07-31T15:10:53.252Z,18.41
2022-07-31T15:13:25.922Z,18.41
2022-07-31T15:15:54.702Z,18.38
2022-07-31T15:18:25.865Z,18.38
2022-07-31T15:20:55.147Z,18.37
2022-07-31T15:23:24.733Z,18.38
2022-07-31T15:25:53.317Z,18.38
2022-07-31T15:28:22.026Z,18.40
2022-07-31T15:30:53.049Z,18.41
2022-07-31T15:33:23.159Z,18.41
2022-07-31T15:35:51.605Z,18.40
2022-07-31T15:38:20.170Z,18.39
2022-07-31T15:40:49.449Z,18.39
2022-07-31T15:43:18.430Z,18.38
2022-07-31T15:45:50.614Z,18.37
2022-07-31T15:48:19.182Z,18.35
2022-07-31T15:50:47.996Z,18.33
2022-07-31T15:53:16.710Z,18.32
2022-07-31T15:55:47.104Z,18.31
2022-07-31T15:58:15.924Z,18.28
2022-07-31T16:00:44.831Z,18.25
2022-07-31T16:03:17.814Z,18.23
2022-07-31T16:05:55.922Z,18.21
2022-07-31T16:08:29.169Z,18.17
2022-07-31T16:11:03.356Z,18.13
2022-07-31T16:13:35.846Z,18.10
2022-07-31T16:16:05.815Z,18.06
2022-07-31T16:18:34.557Z,18.01
2022-07-31T16:21:03.071Z,17.97
2022-07-31T16:23:31.838Z,17.94
2022-07-31T16:26:00.489Z,17.91
2022-07-31T16:28:29.185Z,17.88
2022-07-31T16:30:57.925Z,17.86
2022-07-31T16:33:26.579Z,17.84
2022-07-31T16:35:55.286Z,17.83
2022-07-31T16:38:23.970Z,17.83
2022-07-31T16:40:53.668Z,17.83
2022-07-31T16:43:47.632Z,17.84
2022-07-31T16:46:14.293Z,17.85
2022-07-31T16:48:43.070Z,17.87
2022-07-31T16:51:11.866Z,17.85
2022-07-31T16:54:10.965Z,17.83
2022-07-31T16:56:31.426Z,17.81
2022-07-31T16:59:03.994Z,17.78
2022-07-31T17:01:56.757Z,17.76
2022-07-31T17:04:21.969Z,17.75
2022-07-31T17:06:50.904Z,17.74
2022-07-31T17:09:19.646Z,17.72
2022-07-31T17:11:50.801Z,17.73
2022-07-31T17:14:22.165Z,17.71
2022-07-31T17:16:54.757Z,17.72
2022-07-31T17:19:42.860Z,17.73
2022-07-31T17:22:17.840Z,17.71
2022-07-31T17:24:49.921Z,17.71
2022-07-31T17:27:19.792Z,17.70
2022-07-31T17:29:48.996Z,17.67
2022-07-31T17:32:18.687Z,17.65
2022-07-31T17:34:49.941Z,17.62
2022-07-31T17:37:19.111Z,17.58
2022-07-31T17:39:54.674Z,17.57
2022-07-31T17:42:27.290Z,17.57
2022-07-31T17:44:59.626Z,17.57
2022-07-31T17:47:30.770Z,17.57
2022-07-31T17:49:59.490Z,17.58
2022-07-31T17:52:28.371Z,17.59
2022-07-31T17:54:57.117Z,17.61
2022-07-31T17:57:29.155Z,17.64
2022-07-31T18:00:01.598Z,17.66
2022-07-31T18:02:33.190Z,17.67
2022-07-31T18:05:06.384Z,17.70
2022-07-31T18:07:37.213Z,17.72
2022-07-31T18:10:08.567Z,17.74
2022-07-31T18:12:40.387Z,17.75
2022-07-31T18:15:34.390Z,17.74
2022-07-31T18:18:03.922Z,17.73
2022-07-31T18:20:33.082Z,17.74
2022-07-31T18:23:02.163Z,17.75
2022-07-31T18:25:31.328Z,17.75
2022-07-31T18:28:00.285Z,17.75
2022-07-31T18:30:30.756Z,17.72
2022-07-31T18:33:03.224Z,17.69
2022-07-31T18:35:32.641Z,17.67
2022-07-31T18:38:01.258Z,17.63
2022-07-31T18:40:32.375Z,17.60
2022-07-31T18:43:01.804Z,17.58
2022-07-31T18:45:31.085Z,17.56
2022-07-31T18:47:59.816Z,17.54
2022-07-31T18:50:59.712Z,17.50
2022-07-31T18:53:17.610Z,17.47
2022-07-31T18:55:48.658Z,17.42
2022-07-31T18:58:17.266Z,17.40
2022-07-31T19:00:45.757Z,17.37
2022-07-31T19:03:14.307Z,17.33
2022-07-31T19:05:43.865Z,17.31
2022-07-31T19:08:14.972Z,17.29
2022-07-31T19:10:43.456Z,17.27
2022-07-31T19:13:18.978Z,17.24
2022-07-31T19:15:49.730Z,17.22
2022-07-31T19:18:23.442Z,17.20
2022-07-31T19:21:17.949Z,17.17
2022-07-31T19:23:46.954Z,17.15
2022-07-31T19:26:15.664Z,17.15
2022-07-31T19:28:44.810Z,17.11
2022-07-31T19:31:13.755Z,17.11
2022-07-31T19:33:42.466Z,17.08
2022-07-31T19:36:11.026Z,17.08
2022-07-31T19:38:40.658Z,17.06
2022-07-31T19:41:09.060Z,17.06
2022-07-31T19:43:37.901Z,17.05
2022-07-31T19:46:12.051Z,17.03
2022-07-31T19:48:43.511Z,17.02
2022-07-31T19:51:13.876Z,17.03
2022-07-31T19:53:44.042Z,17.02
2022-07-31T19:56:20.175Z,17.00
2022-07-31T19:58:51.480Z,17.00
2022-07-31T20:01:20.498Z,17.00
2022-07-31T20:03:49.507Z,16.98
2022-07-31T20:06:18.512Z,16.98
2022-07-31T20:08:47.039Z,16.98
2022-07-31T20:11:16.636Z,16.97
2022-07-31T20:13:46.424Z,16.97
2022-07-31T20:16:15.138Z,16.96
2022-07-31T20:18:43.646Z,16.96
2022-07-31T20:21:12.539Z,16.94
2022-07-31T20:23:41.031Z,16.92
2022-07-31T20:26:11.362Z,16.91
2022-07-31T20:28:40.840Z,16.89
2022-07-31T20:31:18.491Z,16.87
2022-07-31T20:33:57.594Z,16.85
2022-07-31T20:36:27.469Z,16.81
2022-07-31T20:38:58.201Z,16.77
2022-07-31T20:41:27.283Z,16.74
2022-07-31T20:43:56.366Z,16.71
2022-07-31T20:46:25.049Z,16.69
2022-07-31T20:48:55.630Z,16.68
2022-07-31T20:51:25.200Z,16.66
2022-07-31T20:53:56.810Z,16.64
2022-07-31T20:56:25.467Z,16.62
2022-07-31T20:58:54.463Z,16.63
2022-07-31T21:01:24.468Z,16.64
2022-07-31T21:03:54.389Z,16.64
2022-07-31T21:06:23.024Z,16.65
2022-07-31T21:08:51.576Z,16.67
2022-07-31T21:11:20.120Z,16.69
2022-07-31T21:13:48.673Z,16.72
2022-07-31T21:16:19.162Z,16.73
2022-07-31T21:18:50.118Z,16.77
2022-07-31T21:21:18.815Z,16.79
2022-07-31T21:23:47.310Z,16.81
2022-07-31T21:26:17.004Z,16.84
2022-07-31T21:28:47.724Z,16.86
2022-07-31T21:31:18.184Z,16.87
2022-07-31T21:33:48.790Z,16.89
2022-07-31T21:36:19.822Z,16.89
2022-07-31T21:38:49.373Z,16.89
2022-07-31T21:41:19.162Z,16.89
2022-07-31T21:43:59.124Z,16.90
2022-07-31T21:46:29.529Z,16.89
2022-07-31T21:48:58.936Z,16.88
2022-07-31T21:51:28.903Z,16.87
2022-07-31T21:53:57.449Z,16.86
2022-07-31T21:56:28.811Z,16.86
2022-07-31T21:58:57.629Z,16.85
2022-07-31T22:01:26.331Z,16.84
2022-07-31T22:03:54.877Z,16.85
2022-07-31T22:06:42.109Z,16.86
2022-07-31T22:09:10.757Z,16.86
2022-07-31T22:11:39.285Z,16.86
2022-07-31T22:14:08.205Z,16.86
2022-07-31T22:16:38.544Z,16.86
2022-07-31T22:19:08.284Z,16.86
2022-07-31T22:21:37.485Z,16.86
2022-07-31T22:24:08.811Z,16.86
2022-07-31T22:26:38.427Z,16.87
2022-07-31T22:29:07.889Z,16.88
2022-07-31T22:31:38.541Z,16.86
2022-07-31T22:34:37.268Z,16.86
2022-07-31T22:37:07.622Z,16.88
2022-07-31T22:39:37.496Z,16.89
2022-07-31T22:42:07.425Z,16.90
2022-07-31T22:44:38.017Z,16.92
2022-07-31T22:47:08.452Z,16.95
2022-07-31T22:49:37.076Z,16.97
2022-07-31T22:52:07.131Z,16.98
2022-07-31T22:54:35.726Z,16.98
2022-07-31T22:57:04.621Z,16.99
2022-07-31T22:59:33.720Z,16.99
2022-07-31T23:02:04.549Z,17.01
2022-07-31T23:04:33.359Z,17.01
2022-07-31T23:07:01.897Z,17.01
2022-07-31T23:09:30.869Z,17.01
2022-07-31T23:11:59.754Z,17.00
2022-07-31T23:14:29.453Z,16.99
2022-07-31T23:16:58.847Z,16.98
2022-07-31T23:19:27.259Z,16.97
2022-07-31T23:21:55.738Z,16.95
2022-07-31T23:24:24.240Z,16.93
2022-07-31T23:26:53.080Z,16.92
2022-07-31T23:29:21.480Z,16.91
2022-07-31T23:31:49.940Z,16.90
2022-07-31T23:34:18.408Z,16.88
2022-07-31T23:36:46.902Z,16.88
2022-07-31T23:39:17.878Z,16.87
2022-07-31T23:42:04.821Z,16.86
2022-07-31T23:44:33.548Z,16.84
2022-07-31T23:47:07.756Z,16.83
2022-07-31T23:49:37.333Z,16.82
2022-07-31T23:52:06.495Z,16.81
2022-07-31T23:54:35.214Z,16.81
2022-07-31T23:57:03.714Z,16.81
2022-07-31T23:59:32.485Z,16.82
